Time;durP1;ratioP1;P1;durP2;ratioP2;P2;SDS_P1;SDS_P2;PMS_P1;PMS_P2;Temp;Humidity;BMP_temperature;BMP_pressure;BME280_temperature;BME280_humidity;BME280_pressure;Samples;Min_cycle;Max_cycle;Signal;HPM_P1;HPM_P2
2023/05/04 00:02:00;;;;;;;3.47;1.20;;;7.30;99.90;;;;;;5115680;28;20071;-75
2023/05/04 00:04:26;;;;;;;4.80;1.33;;;7.30;99.90;;;;;;5103537;28;20127;-75
2023/05/04 00:06:51;;;;;;;3.72;1.23;;;7.30;99.90;;;;;;5087664;28;20428;-75
2023/05/04 00:09:17;;;;;;;3.88;1.63;;;7.30;99.90;;;;;;5094353;28;20126;-75
2023/05/04 00:11:42;;;;;;;7.57;1.88;;;7.30;99.90;;;;;;5094601;28;20039;-75
2023/05/04 00:14:08;;;;;;;5.38;1.60;;;7.30;99.90;;;;;;5104828;28;20329;-75
2023/05/04 00:16:35;;;;;;;4.95;1.50;;;7.20;99.90;;;;;;5108475;28;20040;-75
2023/05/04 00:19:00;;;;;;;3.97;1.40;;;7.20;99.90;;;;;;5055495;28;1207931;-75
2023/05/04 00:21:26;;;;;;;3.72;1.27;;;7.10;99.90;;;;;;5124894;27;20072;-75
2023/05/04 00:23:52;;;;;;;2.33;1.20;;;7.10;99.90;;;;;;5107644;28;20042;-75
2023/05/04 00:26:17;;;;;;;3.00;1.10;;;7.10;99.90;;;;;;5091914;28;20035;-75
2023/05/04 00:28:43;;;;;;;2.60;1.10;;;7.10;99.90;;;;;;5087853;27;20079;-75
2023/05/04 00:31:08;;;;;;;4.00;1.73;;;7.10;99.90;;;;;;5132495;27;20521;-75
2023/05/04 00:33:34;;;;;;;5.72;1.60;;;7.10;99.90;;;;;;5073976;28;20039;-75
2023/05/04 00:36:02;;;;;;;3.25;1.90;;;7.00;99.90;;;;;;5109877;28;20031;-76
2023/05/04 00:38:28;;;;;;;5.55;1.35;;;7.10;99.90;;;;;;5099235;27;20036;-76
2023/05/04 00:40:53;;;;;;;3.20;1.40;;;7.10;99.90;;;;;;5092919;28;20617;-76
2023/05/04 00:43:19;;;;;;;3.08;1.30;;;7.10;99.90;;;;;;5092060;28;20127;-76
2023/05/04 00:45:45;;;;;;;4.30;1.42;;;7.00;99.90;;;;;;5109135;28;20031;-75
2023/05/04 00:48:10;;;;;;;4.63;1.90;;;7.00;99.90;;;;;;5096631;28;20555;-75
2023/05/04 00:50:36;;;;;;;4.47;1.35;;;7.00;99.90;;;;;;5122661;27;20036;-75
2023/05/04 00:53:08;;;;;;;5.18;1.83;;;6.90;99.90;;;;;;5129202;27;20036;-75
2023/05/04 00:55:37;;;;;;;5.13;1.83;;;6.90;99.90;;;;;;5076981;28;20126;-75
2023/05/04 00:58:02;;;;;;;3.28;1.50;;;6.90;99.90;;;;;;5086199;28;20036;-75
2023/05/04 01:00:28;;;;;;;3.08;1.33;;;6.90;99.90;;;;;;5100395;28;20043;-75
2023/05/04 01:02:53;;;;;;;4.20;1.60;;;6.90;99.90;;;;;;5109256;28;20046;-75
2023/05/04 01:05:19;;;;;;;5.63;1.50;;;6.90;99.90;;;;;;5072799;28;20443;-75
2023/05/04 01:08:08;;;;;;;4.40;1.58;;;6.80;99.90;;;;;;5088985;27;20032;-75
2023/05/04 01:10:56;;;;;;;4.50;1.88;;;6.90;99.90;;;;;;5098721;28;20048;-75
2023/05/04 01:13:24;;;;;;;4.82;1.55;;;6.80;99.90;;;;;;5071137;28;20413;-75
2023/05/04 01:15:50;;;;;;;4.15;1.38;;;6.80;99.90;;;;;;5071859;28;20091;-75
2023/05/04 01:18:16;;;;;;;3.53;1.40;;;6.80;99.90;;;;;;5076912;28;20036;-75
2023/05/04 01:20:42;;;;;;;3.15;1.52;;;6.80;99.90;;;;;;5083414;28;20047;-75
2023/05/04 01:23:09;;;;;;;4.53;2.00;;;6.80;99.90;;;;;;5131134;27;20586;-75
2023/05/04 01:25:55;;;;;;;4.68;1.40;;;6.80;99.90;;;;;;5070549;28;20688;-75
2023/05/04 01:28:40;;;;;;;3.03;1.60;;;6.80;99.90;;;;;;5087442;28;20035;-75
2023/05/04 01:31:08;;;;;;;4.13;1.50;;;6.70;99.90;;;;;;5072347;28;20067;-75
2023/05/04 01:33:34;;;;;;;4.20;1.50;;;6.70;99.90;;;;;;5089490;28;20066;-75
2023/05/04 01:36:00;;;;;;;3.88;1.70;;;6.70;99.90;;;;;;5099912;28;20040;-75
2023/05/04 01:38:26;;;;;;;4.03;1.70;;;6.70;99.90;;;;;;5071205;28;20036;-75
2023/05/04 01:40:52;;;;;;;5.72;2.08;;;6.60;99.90;;;;;;5071120;28;20521;-75
2023/05/04 01:43:17;;;;;;;4.85;1.67;;;6.70;99.90;;;;;;5087792;28;20043;-75
2023/05/04 01:45:43;;;;;;;4.25;1.90;;;6.70;99.90;;;;;;5106972;28;20039;-75
2023/05/04 01:48:08;;;;;;;3.90;1.65;;;6.70;99.90;;;;;;5123174;27;20558;-75
2023/05/04 01:50:34;;;;;;;3.90;1.73;;;6.60;99.90;;;;;;5088366;28;20036;-76
2023/05/04 01:53:00;;;;;;;3.53;1.60;;;6.60;99.90;;;;;;5093638;27;20078;-75
2023/05/04 01:55:25;;;;;;;5.90;1.90;;;6.60;99.90;;;;;;5097738;28;20047;-75
2023/05/04 01:57:51;;;;;;;6.43;1.88;;;6.70;99.90;;;;;;5104005;27;20040;-75
2023/05/04 02:00:17;;;;;;;3.60;1.48;;;6.70;99.90;;;;;;5071176;28;20075;-75
2023/05/04 02:02:43;;;;;;;3.75;1.70;;;6.70;99.90;;;;;;5103691;28;20035;-75
2023/05/04 02:05:08;;;;;;;4.22;1.52;;;6.70;99.90;;;;;;5122221;27;20047;-75
2023/05/04 02:07:34;;;;;;;6.78;2.30;;;6.70;99.90;;;;;;5111980;28;20040;-75
2023/05/04 02:10:00;;;;;;;3.20;1.63;;;6.60;99.90;;;;;;5141516;27;20119;-75
2023/05/04 02:12:25;;;;;;;3.25;1.80;;;6.60;99.90;;;;;;5106946;28;20070;-75
2023/05/04 02:14:51;;;;;;;3.80;1.50;;;6.60;99.90;;;;;;5100101;28;20528;-75
2023/05/04 02:17:16;;;;;;;4.05;1.42;;;6.60;99.90;;;;;;5135146;27;20172;-75
2023/05/04 02:19:42;;;;;;;4.53;1.90;;;6.70;99.90;;;;;;5113935;28;20052;-75
2023/05/04 02:22:08;;;;;;;3.95;2.10;;;6.70;99.90;;;;;;5100768;28;20043;-75
2023/05/04 02:24:34;;;;;;;3.42;1.70;;;6.70;99.90;;;;;;5102413;28;20047;-75
2023/05/04 02:27:00;;;;;;;4.28;1.35;;;6.60;99.90;;;;;;5107497;28;20120;-75
2023/05/04 02:29:26;;;;;;;3.30;1.67;;;6.60;99.90;;;;;;5106768;28;20401;-75
2023/05/04 02:31:52;;;;;;;3.65;1.77;;;6.60;99.90;;;;;;5131731;27;20035;-76
2023/05/04 02:34:17;;;;;;;5.15;2.05;;;6.60;99.90;;;;;;5082521;28;20039;-76
2023/05/04 02:36:43;;;;;;;3.97;1.67;;;6.70;99.90;;;;;;5097087;28;20438;-76
2023/05/04 02:39:08;;;;;;;3.72;1.63;;;6.70;99.90;;;;;;5134373;27;20075;-76
2023/05/04 02:41:34;;;;;;;2.95;1.50;;;6.60;99.90;;;;;;5120671;27;20440;-75
2023/05/04 02:43:59;;;;;;;4.93;1.45;;;6.60;99.90;;;;;;5121169;28;20139;-75
2023/05/04 02:46:25;;;;;;;3.95;1.67;;;6.70;99.90;;;;;;5137009;27;20090;-75
2023/05/04 02:48:51;;;;;;;5.85;1.73;;;6.60;99.90;;;;;;5070653;28;20144;-75
2023/05/04 02:51:17;;;;;;;3.50;1.60;;;6.60;99.90;;;;;;5088813;28;20595;-75
2023/05/04 02:53:43;;;;;;;3.35;1.55;;;6.60;99.90;;;;;;5104520;28;20040;-75
2023/05/04 02:56:08;;;;;;;4.32;2.00;;;6.60;99.90;;;;;;5077894;28;20067;-75
2023/05/04 02:58:34;;;;;;;3.33;1.58;;;6.60;99.90;;;;;;5104508;28;20119;-75
2023/05/04 03:01:00;;;;;;;5.30;1.95;;;6.60;99.90;;;;;;5140089;27;20028;-75
2023/05/04 03:03:25;;;;;;;6.95;1.80;;;6.60;99.90;;;;;;5141513;27;20036;-75
2023/05/04 03:05:51;;;;;;;3.25;1.40;;;6.60;99.90;;;;;;5132680;27;20497;-75
2023/05/04 03:08:17;;;;;;;4.28;1.75;;;6.60;99.90;;;;;;5097852;28;20106;-75
2023/05/04 03:10:42;;;;;;;7.43;2.25;;;6.60;99.90;;;;;;5080981;28;20088;-75
2023/05/04 03:13:08;;;;;;;3.83;1.73;;;6.60;99.90;;;;;;5088729;28;20734;-75
2023/05/04 03:15:34;;;;;;;4.20;2.00;;;6.60;99.90;;;;;;5093566;28;20035;-75
2023/05/04 03:18:00;;;;;;;4.38;1.63;;;6.60;99.90;;;;;;5108954;28;20031;-75
2023/05/04 03:20:25;;;;;;;4.40;1.65;;;6.60;99.90;;;;;;5075272;28;20131;-75
2023/05/04 03:22:51;;;;;;;3.42;1.50;;;6.60;99.90;;;;;;5089420;28;20054;-75
2023/05/04 03:25:17;;;;;;;2.90;1.92;;;6.60;99.90;;;;;;5101244;27;20059;-75
2023/05/04 03:27:42;;;;;;;4.38;1.90;;;6.60;99.90;;;;;;5091536;28;20044;-75
2023/05/04 03:30:08;;;;;;;4.55;1.65;;;6.60;99.90;;;;;;5090818;28;20083;-75
2023/05/04 03:32:34;;;;;;;3.85;2.33;;;6.60;99.90;;;;;;5107156;28;20046;-75
2023/05/04 03:34:59;;;;;;;3.83;1.90;;;6.60;99.90;;;;;;5136357;27;20028;-75
2023/05/04 03:37:25;;;;;;;6.85;2.45;;;6.60;99.90;;;;;;5092016;28;20044;-75
2023/05/04 03:39:50;;;;;;;5.65;1.75;;;6.60;99.90;;;;;;5109880;28;22120;-75
2023/05/04 03:42:16;;;;;;;5.32;1.95;;;6.60;99.90;;;;;;5083185;28;20074;-75
2023/05/04 03:44:41;;;;;;;3.25;1.40;;;6.60;99.90;;;;;;5110945;28;20032;-75
2023/05/04 03:47:07;;;;;;;4.03;2.00;;;6.60;99.90;;;;;;5128010;27;20043;-75
2023/05/04 03:49:33;;;;;;;4.53;1.77;;;6.60;99.90;;;;;;5110845;28;20047;-75
2023/05/04 03:51:59;;;;;;;3.88;1.83;;;6.60;99.90;;;;;;5099145;28;20071;-75
2023/05/04 03:54:25;;;;;;;4.25;1.80;;;6.50;99.90;;;;;;5105709;27;20488;-75
2023/05/04 03:56:51;;;;;;;4.45;1.77;;;6.60;99.90;;;;;;5095534;27;20086;-75
2023/05/04 03:59:17;;;;;;;4.45;1.77;;;6.50;99.90;;;;;;5106061;28;20046;-76
2023/05/04 04:01:42;;;;;;;5.65;1.85;;;6.50;99.90;;;;;;5124785;27;20122;-75
2023/05/04 04:04:08;;;;;;;2.95;1.42;;;6.50;99.90;;;;;;5110952;28;20039;-75
2023/05/04 04:06:34;;;;;;;4.07;1.50;;;6.50;99.90;;;;;;5090362;28;20528;-75
2023/05/04 04:08:59;;;;;;;6.13;2.15;;;6.50;99.90;;;;;;5085965;27;20047;-75
2023/05/04 04:11:25;;;;;;;6.72;2.03;;;6.50;99.90;;;;;;5095880;28;20027;-75
2023/05/04 04:13:51;;;;;;;4.63;1.92;;;6.60;99.90;;;;;;5093894;28;20118;-75
2023/05/04 04:16:16;;;;;;;4.57;2.05;;;6.50;99.90;;;;;;5099297;28;20039;-75
2023/05/04 04:18:42;;;;;;;8.93;2.00;;;6.50;99.90;;;;;;5093328;28;20040;-75
2023/05/04 04:21:09;;;;;;;6.15;2.15;;;6.60;99.90;;;;;;5114694;27;20572;-75
2023/05/04 04:23:35;;;;;;;4.70;2.20;;;6.60;99.90;;;;;;5087479;28;20048;-75
2023/05/04 04:26:00;;;;;;;5.95;2.35;;;6.60;99.90;;;;;;5088031;27;20076;-75
2023/05/04 04:28:26;;;;;;;4.97;1.95;;;6.60;99.90;;;;;;5088707;28;20039;-75
2023/05/04 04:30:51;;;;;;;3.08;1.40;;;6.60;99.90;;;;;;5124033;27;20626;-75
2023/05/04 04:33:18;;;;;;;5.63;2.13;;;6.60;99.90;;;;;;5072546;28;20032;-75
2023/05/04 04:35:44;;;;;;;7.07;2.10;;;6.60;99.90;;;;;;5075690;28;20028;-76
2023/05/04 04:38:09;;;;;;;4.20;1.85;;;6.60;99.90;;;;;;5089577;28;20036;-75
2023/05/04 04:40:35;;;;;;;6.05;1.95;;;6.60;99.90;;;;;;5090941;27;20036;-75
2023/05/04 04:43:01;;;;;;;6.35;2.53;;;6.70;99.90;;;;;;5071863;28;20079;-75
2023/05/04 04:45:27;;;;;;;10.98;2.10;;;6.60;99.90;;;;;;5079444;28;20081;-75
2023/05/04 04:47:52;;;;;;;6.53;2.08;;;6.70;99.90;;;;;;5112786;27;20032;-75
2023/05/04 04:50:18;;;;;;;5.68;2.35;;;6.70;99.90;;;;;;5088940;28;20080;-76
2023/05/04 04:52:44;;;;;;;6.35;2.20;;;6.70;99.90;;;;;;5092548;28;20036;-75
2023/05/04 04:55:10;;;;;;;8.52;2.40;;;6.70;99.90;;;;;;5104793;28;20055;-75
2023/05/04 04:57:35;;;;;;;6.53;2.22;;;6.70;99.90;;;;;;5091719;28;20067;-75
2023/05/04 05:00:04;;;;;;;5.05;1.90;;;6.70;99.90;;;;;;5123932;27;20130;-75
2023/05/04 05:02:32;;;;;;;4.43;2.10;;;6.70;99.90;;;;;;5088528;28;20039;-76
2023/05/04 05:04:58;;;;;;;5.95;2.20;;;6.60;99.90;;;;;;5093402;28;20047;-75
2023/05/04 05:07:23;;;;;;;5.90;1.92;;;6.70;99.90;;;;;;5072888;28;20032;-76
2023/05/04 05:09:49;;;;;;;7.22;2.53;;;6.70;99.90;;;;;;5105448;27;20119;-76
2023/05/04 05:12:15;;;;;;;9.35;2.63;;;6.70;99.90;;;;;;5083544;28;20042;-75
2023/05/04 05:14:41;;;;;;;6.40;2.33;;;6.80;99.90;;;;;;5103871;28;20119;-75
2023/05/04 05:17:09;;;;;;;5.75;2.05;;;6.80;99.90;;;;;;5100917;28;20440;-75
2023/05/04 05:19:36;;;;;;;4.75;1.92;;;6.80;99.90;;;;;;5101635;28;20069;-75
2023/05/04 05:22:02;;;;;;;7.28;2.40;;;6.80;99.90;;;;;;5087211;28;20051;-75
2023/05/04 05:24:28;;;;;;;5.10;2.28;;;6.90;99.90;;;;;;5113654;27;20485;-75
2023/05/04 05:26:54;;;;;;;5.85;2.45;;;6.90;99.90;;;;;;5106238;28;20032;-75
2023/05/04 05:29:20;;;;;;;5.95;1.85;;;6.90;99.90;;;;;;5136947;27;20066;-75
2023/05/04 05:31:45;;;;;;;6.68;2.10;;;6.90;99.90;;;;;;5094021;28;20036;-75
2023/05/04 05:34:11;;;;;;;7.20;2.42;;;6.90;99.90;;;;;;5139135;27;20038;-75
2023/05/04 05:36:37;;;;;;;6.68;2.15;;;6.90;99.90;;;;;;5098405;28;20397;-75
2023/05/04 05:39:03;;;;;;;5.88;2.33;;;7.00;99.90;;;;;;5094450;28;20273;-75
2023/05/04 05:41:28;;;;;;;6.20;2.33;;;7.10;99.90;;;;;;5133349;27;20416;-75
2023/05/04 05:43:54;;;;;;;5.55;2.67;;;7.20;99.90;;;;;;5068496;28;20148;-75
2023/05/04 05:46:21;;;;;;;4.38;2.10;;;7.20;99.90;;;;;;5096570;28;20556;-75
2023/05/04 05:48:47;;;;;;;4.88;2.28;;;7.20;99.90;;;;;;5123425;27;20036;-75
2023/05/04 05:51:13;;;;;;;5.15;2.30;;;7.20;99.90;;;;;;5130552;27;20081;-75
2023/05/04 05:53:38;;;;;;;7.25;2.65;;;7.20;99.90;;;;;;5093794;28;20087;-77
2023/05/04 05:56:04;;;;;;;8.52;3.15;;;7.20;99.90;;;;;;5080306;28;20040;-74
2023/05/04 05:58:30;;;;;;;9.73;3.53;;;7.20;99.90;;;;;;5094538;28;20040;-75
2023/05/04 06:00:55;;;;;;;5.10;2.38;;;7.20;99.90;;;;;;5097589;28;20042;-74
2023/05/04 06:03:21;;;;;;;6.30;1.90;;;7.20;99.90;;;;;;5115473;27;20046;-75
2023/05/04 06:05:46;;;;;;;6.15;2.15;;;7.20;99.90;;;;;;5095871;28;20057;-75
2023/05/04 06:08:12;;;;;;;5.90;2.28;;;7.20;99.90;;;;;;5110096;27;20046;-75
2023/05/04 06:10:38;;;;;;;8.38;3.05;;;7.20;99.90;;;;;;5131014;27;20043;-74
2023/05/04 06:13:04;;;;;;;5.25;2.53;;;7.20;99.90;;;;;;5085635;28;20085;-75
2023/05/04 06:15:29;;;;;;;5.63;2.28;;;7.30;99.90;;;;;;5090221;28;20028;-75
2023/05/04 06:17:55;;;;;;;7.50;2.80;;;7.30;99.90;;;;;;5091771;27;20028;-75
2023/05/04 06:20:21;;;;;;;7.18;2.78;;;7.40;99.90;;;;;;5088904;28;20059;-75
2023/05/04 06:22:47;;;;;;;7.30;2.38;;;7.60;99.90;;;;;;5071044;28;20032;-75
2023/05/04 06:25:12;;;;;;;7.72;2.50;;;7.90;99.90;;;;;;5111830;27;20089;-75
2023/05/04 06:27:38;;;;;;;7.40;2.58;;;8.30;99.90;;;;;;5088455;28;20275;-75
2023/05/04 06:30:04;;;;;;;7.68;2.80;;;8.60;99.90;;;;;;5087636;28;20421;-75
2023/05/04 06:32:30;;;;;;;8.05;2.80;;;8.80;99.90;;;;;;5102107;28;20025;-75
2023/05/04 06:34:55;;;;;;;5.70;2.10;;;8.90;99.90;;;;;;5119046;27;20451;-75
2023/05/04 06:37:21;;;;;;;6.22;2.88;;;8.90;99.90;;;;;;5093938;28;20027;-75
2023/05/04 06:39:47;;;;;;;7.93;2.85;;;8.90;99.90;;;;;;5124331;27;20067;-75
2023/05/04 06:42:12;;;;;;;6.63;2.95;;;8.90;99.90;;;;;;5086730;28;20125;-75
2023/05/04 06:44:38;;;;;;;7.47;2.28;;;8.90;99.90;;;;;;5099205;28;20065;-75
2023/05/04 06:47:06;;;;;;;6.53;2.40;;;8.90;99.90;;;;;;5087396;27;20043;-76
2023/05/04 06:49:35;;;;;;;5.38;2.28;;;8.80;99.90;;;;;;5080384;28;20032;-75
2023/05/04 06:52:00;;;;;;;7.00;3.22;;;8.90;99.90;;;;;;5077931;28;20509;-75
2023/05/04 06:54:27;;;;;;;6.13;2.85;;;8.90;99.90;;;;;;5081319;28;20349;-75
2023/05/04 06:56:52;;;;;;;8.65;3.17;;;8.90;99.90;;;;;;5102346;27;20032;-75
2023/05/04 06:59:19;;;;;;;5.70;2.42;;;8.90;99.90;;;;;;5090907;27;20043;-75
2023/05/04 07:01:48;;;;;;;4.95;2.60;;;8.90;99.90;;;;;;5106201;27;20032;-75
2023/05/04 07:04:21;;;;;;;8.20;2.60;;;9.00;99.90;;;;;;5082609;28;20044;-75
2023/05/04 07:06:48;;;;;;;4.90;2.55;;;9.00;99.90;;;;;;5091818;27;20039;-75
2023/05/04 07:09:14;;;;;;;5.35;2.38;;;9.10;99.90;;;;;;5094958;28;20048;-76
2023/05/04 07:11:40;;;;;;;6.13;2.90;;;9.00;99.90;;;;;;5085756;27;20429;-75
2023/05/04 07:14:06;;;;;;;6.25;2.47;;;9.10;99.90;;;;;;5103213;27;20036;-75
2023/05/04 07:16:31;;;;;;;6.57;2.53;;;9.10;99.90;;;;;;5095107;27;20024;-75
2023/05/04 07:18:57;;;;;;;5.07;2.53;;;9.10;99.90;;;;;;5093165;27;20078;-75
2023/05/04 07:21:23;;;;;;;6.45;3.42;;;9.20;99.90;;;;;;5090383;28;20040;-76
2023/05/04 07:23:50;;;;;;;8.25;2.75;;;9.20;99.90;;;;;;5122712;27;20331;-75
2023/05/04 07:26:16;;;;;;;6.30;2.60;;;9.20;99.90;;;;;;5096326;28;20032;-75
2023/05/04 07:28:45;;;;;;;4.28;2.13;;;9.20;99.90;;;;;;5082664;28;20450;-75
2023/05/04 07:31:11;;;;;;;7.18;3.05;;;9.20;99.90;;;;;;5073670;27;20481;-76
2023/05/04 07:33:38;;;;;;;7.85;2.55;;;9.30;99.90;;;;;;5093965;27;20039;-75
2023/05/04 07:36:03;;;;;;;9.82;2.53;;;9.30;99.90;;;;;;5091792;27;20032;-75
2023/05/04 07:38:29;;;;;;;7.30;2.40;;;9.30;99.90;;;;;;5094365;27;20040;-75
2023/05/04 07:40:55;;;;;;;6.13;2.58;;;9.30;99.90;;;;;;5071248;28;20112;-74
2023/05/04 07:43:22;;;;;;;7.57;2.85;;;9.40;99.90;;;;;;5076086;28;20477;-74
2023/05/04 07:45:47;;;;;;;4.75;2.58;;;9.40;99.90;;;;;;5093875;27;20031;-78
2023/05/04 07:48:13;;;;;;;8.38;2.78;;;9.40;99.90;;;;;;5102275;27;20169;-75
2023/05/04 07:50:39;;;;;;;7.55;2.85;;;9.50;99.90;;;;;;5096836;27;20518;-75
2023/05/04 07:53:04;;;;;;;5.13;2.40;;;9.60;99.90;;;;;;5082818;28;20521;-75
2023/05/04 07:55:30;;;;;;;9.68;2.40;;;9.60;99.90;;;;;;5127363;27;20042;-75
2023/05/04 07:57:56;;;;;;;5.13;2.47;;;9.70;99.90;;;;;;5095275;27;20128;-75
2023/05/04 08:00:21;;;;;;;5.35;2.38;;;9.70;99.90;;;;;;5087471;28;20374;-75
2023/05/04 08:02:48;;;;;;;6.13;2.70;;;9.70;99.90;;;;;;5123061;27;20040;-75
2023/05/04 08:05:14;;;;;;;6.53;2.67;;;9.80;99.90;;;;;;5078707;27;20043;-76
2023/05/04 08:07:40;;;;;;;7.10;3.22;;;9.80;99.90;;;;;;5108982;28;20545;-75
2023/05/04 08:10:06;;;;;;;5.78;2.50;;;9.80;99.90;;;;;;5108607;28;20447;-75
2023/05/04 08:12:31;;;;;;;5.10;2.88;;;9.90;99.90;;;;;;5108554;28;20537;-75
2023/05/04 08:14:57;;;;;;;6.68;2.28;;;9.90;99.90;;;;;;5107140;28;20031;-75
2023/05/04 08:17:23;;;;;;;6.80;2.67;;;10.00;99.90;;;;;;5100933;27;20485;-75
2023/05/04 08:19:49;;;;;;;8.07;2.83;;;10.10;99.90;;;;;;5108114;27;20055;-75
2023/05/04 08:22:15;;;;;;;6.75;2.88;;;10.10;99.90;;;;;;5107099;27;20033;-75
2023/05/04 08:24:40;;;;;;;4.15;2.30;;;10.20;99.90;;;;;;5105215;28;20548;-75
2023/05/04 08:27:06;;;;;;;6.47;3.38;;;10.30;99.90;;;;;;5107567;28;20480;-75
2023/05/04 08:29:32;;;;;;;5.97;2.47;;;10.30;99.90;;;;;;5108511;28;20040;-75
2023/05/04 08:31:58;;;;;;;9.48;3.35;;;10.40;99.90;;;;;;5100931;27;20073;-73
2023/05/04 08:34:23;;;;;;;9.10;3.50;;;10.50;99.90;;;;;;5072690;28;20070;-74
2023/05/04 08:36:49;;;;;;;6.68;3.05;;;10.30;99.90;;;;;;5102191;27;20067;-74
2023/05/04 08:39:17;;;;;;;6.65;3.22;;;10.10;99.90;;;;;;5133720;27;20493;-76
2023/05/04 08:41:43;;;;;;;9.57;3.40;;;9.80;99.90;;;;;;5129014;27;20039;-77
2023/05/04 08:44:10;;;;;;;8.35;3.03;;;9.70;99.90;;;;;;5080376;28;20315;-74
2023/05/04 08:46:39;;;;;;;8.05;3.85;;;9.50;99.90;;;;;;5083840;28;20039;-74
2023/05/04 08:49:06;;;;;;;8.50;3.42;;;9.50;99.90;;;;;;5092651;28;20138;-74
2023/05/04 08:51:34;;;;;;;7.03;3.33;;;9.40;99.90;;;;;;5073312;28;20074;-74
2023/05/04 08:54:00;;;;;;;9.55;3.88;;;9.40;99.90;;;;;;5135566;27;20034;-73
2023/05/04 08:56:26;;;;;;;6.22;2.78;;;9.40;99.90;;;;;;5092719;28;20051;-73
2023/05/04 08:58:52;;;;;;;7.00;3.33;;;9.40;99.90;;;;;;5091650;28;20035;-73
2023/05/04 09:01:18;;;;;;;7.22;2.78;;;9.50;99.90;;;;;;5094944;28;20032;-73
2023/05/04 09:03:45;;;;;;;6.78;3.30;;;9.50;99.90;;;;;;5089904;28;20039;-72
2023/05/04 09:06:11;;;;;;;7.90;3.40;;;9.50;99.90;;;;;;5077787;28;20389;-73
2023/05/04 09:08:37;;;;;;;7.78;3.22;;;9.50;99.90;;;;;;5103777;28;20036;-73
2023/05/04 09:11:03;;;;;;;7.43;3.15;;;9.50;99.90;;;;;;5104685;28;20059;-74
2023/05/04 09:13:30;;;;;;;5.55;3.40;;;9.50;99.90;;;;;;5104006;27;20436;-73
2023/05/04 09:15:57;;;;;;;7.40;3.50;;;9.40;99.90;;;;;;5102705;27;20046;-73
2023/05/04 09:18:22;;;;;;;6.68;3.10;;;9.40;99.90;;;;;;5108822;28;20039;-73
2023/05/04 09:20:49;;;;;;;7.70;3.15;;;9.50;99.90;;;;;;5109142;28;20062;-73
2023/05/04 09:23:16;;;;;;;7.10;3.30;;;9.50;99.90;;;;;;5084764;28;20125;-73
2023/05/04 09:25:52;;;;;;;9.40;3.03;;;9.50;99.90;;;;;;5097046;28;20043;-73
2023/05/04 09:28:20;;;;;;;5.65;3.17;;;9.60;99.90;;;;;;5104738;28;20115;-73
2023/05/04 09:30:47;;;;;;;7.82;3.60;;;9.60;99.90;;;;;;5101029;27;20040;-73
2023/05/04 09:33:15;;;;;;;7.75;3.33;;;9.70;99.90;;;;;;5108760;28;20396;-73
2023/05/04 09:35:43;;;;;;;7.13;3.38;;;9.70;99.90;;;;;;5090584;28;20079;-73
2023/05/04 09:38:09;;;;;;;8.02;3.47;;;9.80;99.90;;;;;;5077582;28;20039;-73
2023/05/04 09:40:41;;;;;;;7.15;3.67;;;9.80;99.90;;;;;;5073665;28;20440;-73
2023/05/04 09:43:08;;;;;;;7.15;3.05;;;9.80;99.90;;;;;;5094032;27;20483;-74
2023/05/04 09:45:43;;;;;;;8.77;3.10;;;9.80;99.90;;;;;;5122345;27;20252;-73
2023/05/04 09:48:25;;;;;;;9.57;3.30;;;9.90;99.90;;;;;;5106847;27;20035;-73
2023/05/04 09:50:53;;;;;;;6.70;3.40;;;9.90;99.90;;;;;;5093369;28;20075;-73
2023/05/04 09:53:26;;;;;;;6.47;3.20;;;9.90;99.90;;;;;;5074853;28;20043;-73
2023/05/04 09:56:09;;;;;;;7.65;3.53;;;9.90;99.90;;;;;;5094062;27;20036;-73
2023/05/04 09:58:36;;;;;;;8.73;3.17;;;10.00;99.90;;;;;;5100706;28;20039;-73
2023/05/04 10:01:02;;;;;;;6.82;3.50;;;10.00;99.90;;;;;;5104178;28;20043;-73
2023/05/04 10:03:28;;;;;;;5.95;3.25;;;10.10;99.90;;;;;;5096702;28;20085;-72
2023/05/04 10:05:53;;;;;;;10.10;3.65;;;10.10;99.90;;;;;;5091794;27;20446;-73
2023/05/04 10:08:19;;;;;;;10.02;4.05;;;10.20;99.90;;;;;;5121089;27;20036;-73
2023/05/04 10:10:45;;;;;;;5.57;3.17;;;10.20;99.90;;;;;;5073348;28;20040;-73
2023/05/04 10:13:11;;;;;;;6.70;3.17;;;10.30;99.90;;;;;;5089664;28;20389;-73
2023/05/04 10:15:43;;;;;;;7.22;3.38;;;10.40;99.90;;;;;;5090624;28;20104;-73
2023/05/04 10:18:28;;;;;;;12.18;3.80;;;10.40;99.90;;;;;;5084942;28;20063;-73
2023/05/04 10:21:31;;;;;;;10.48;3.70;;;10.50;99.90;;;;;;5125403;27;20051;-73
2023/05/04 10:24:42;;;;;;;8.88;3.72;;;10.60;99.90;;;;;;5100611;27;20500;-73
2023/05/04 10:27:17;;;;;;;7.13;3.60;;;10.60;99.90;;;;;;5097387;27;20039;-73
2023/05/04 10:29:48;;;;;;;9.35;3.20;;;10.70;99.90;;;;;;5102180;28;20470;-73
2023/05/04 10:32:19;;;;;;;8.10;3.45;;;10.80;99.90;;;;;;5095947;27;20524;-73
2023/05/04 10:34:45;;;;;;;9.25;3.53;;;10.80;99.90;;;;;;5098779;27;21129;-73
2023/05/04 10:37:20;;;;;;;5.95;3.03;;;10.90;99.90;;;;;;5096614;28;20047;-73
2023/05/04 10:39:53;;;;;;;7.30;3.35;;;11.00;99.90;;;;;;5094847;27;20442;-73
2023/05/04 10:42:19;;;;;;;9.13;3.17;;;11.00;99.90;;;;;;5093240;27;20575;-73
2023/05/04 10:44:49;;;;;;;6.20;2.92;;;11.00;99.90;;;;;;5095860;27;20035;-74
2023/05/04 10:47:14;;;;;;;6.43;2.85;;;11.10;99.90;;;;;;5079782;27;22399;-74
2023/05/04 10:49:40;;;;;;;6.68;3.17;;;11.10;99.90;;;;;;5077903;28;20042;-74
2023/05/04 10:52:17;;;;;;;9.32;2.58;;;11.20;99.90;;;;;;5123670;27;20047;-74
2023/05/04 10:54:43;;;;;;;5.80;2.50;;;11.20;99.90;;;;;;5120058;27;20032;-74
2023/05/04 10:57:16;;;;;;;5.40;2.70;;;11.30;99.90;;;;;;5100138;28;20314;-74
2023/05/04 10:59:53;;;;;;;6.45;2.80;;;11.40;99.90;;;;;;5111023;27;20074;-74
2023/05/04 11:02:23;;;;;;;7.07;2.85;;;11.40;99.90;;;;;;5107864;27;20088;-74
2023/05/04 11:05:03;;;;;;;6.25;2.53;;;11.50;99.90;;;;;;5096610;28;20434;-74
2023/05/04 11:07:38;;;;;;;5.35;2.42;;;11.60;99.90;;;;;;5093172;27;20110;-74
2023/05/04 11:10:06;;;;;;;5.13;2.60;;;11.70;99.90;;;;;;5125007;27;20035;-74
2023/05/04 11:12:32;;;;;;;4.70;2.55;;;11.70;99.90;;;;;;5087947;27;20436;-74
2023/05/04 11:15:09;;;;;;;6.15;2.38;;;11.80;99.90;;;;;;5108229;27;20028;-74
2023/05/04 11:17:44;;;;;;;6.43;2.35;;;11.90;99.90;;;;;;5092313;28;20036;-73
2023/05/04 11:20:10;;;;;;;6.00;2.58;;;11.90;99.90;;;;;;5099936;27;20649;-74
2023/05/04 11:22:36;;;;;;;8.18;2.55;;;12.00;99.90;;;;;;5090212;27;20044;-73
2023/05/04 11:25:02;;;;;;;5.50;2.22;;;12.10;99.90;;;;;;5069367;28;20040;-74
2023/05/04 11:27:28;;;;;;;4.63;2.25;;;12.10;99.90;;;;;;5076515;28;20587;-74
2023/05/04 11:30:02;;;;;;;6.22;2.05;;;12.20;99.90;;;;;;5083649;28;20043;-74
2023/05/04 11:32:42;;;;;;;4.70;2.03;;;12.20;99.90;;;;;;5092984;27;20043;-74
2023/05/04 11:35:19;;;;;;;3.42;2.00;;;12.20;99.90;;;;;;5088710;27;20036;-75
2023/05/04 11:37:45;;;;;;;4.60;2.20;;;12.30;99.90;;;;;;5100291;28;20059;-73
2023/05/04 11:40:19;;;;;;;6.70;2.10;;;12.40;99.90;;;;;;5098436;28;20089;-74
2023/05/04 11:42:47;;;;;;;3.35;1.98;;;12.50;99.90;;;;;;5107567;28;20040;-74
2023/05/04 11:45:18;;;;;;;3.65;2.13;;;12.50;99.90;;;;;;5097335;28;20044;-74
2023/05/04 11:47:45;;;;;;;5.13;2.25;;;12.60;99.90;;;;;;5076760;28;20074;-74
2023/05/04 11:50:12;;;;;;;4.85;2.40;;;12.70;99.90;;;;;;5096480;28;20032;-74
2023/05/04 11:52:42;;;;;;;6.13;2.30;;;12.70;99.90;;;;;;5088157;28;20047;-74
2023/05/04 11:55:09;;;;;;;5.15;2.28;;;12.80;99.90;;;;;;5090728;28;20036;-74
2023/05/04 11:57:36;;;;;;;2.97;1.83;;;12.80;99.90;;;;;;5071987;28;20040;-74
2023/05/04 12:00:07;;;;;;;2.88;1.70;;;12.90;99.90;;;;;;5092454;28;20071;-74
2023/05/04 12:02:33;;;;;;;5.35;2.58;;;13.00;99.90;;;;;;5087301;28;20131;-74
2023/05/04 12:05:00;;;;;;;5.70;2.08;;;13.10;99.90;;;;;;5088680;28;20092;-74
2023/05/04 12:07:26;;;;;;;7.35;2.20;;;13.20;99.90;;;;;;5122525;27;20036;-74
2023/05/04 12:09:51;;;;;;;5.93;1.70;;;13.30;99.90;;;;;;5090136;28;20035;-74
2023/05/04 12:12:20;;;;;;;3.25;2.03;;;13.40;99.90;;;;;;5072410;28;20035;-74
2023/05/04 12:14:55;;;;;;;4.53;1.90;;;13.60;99.90;;;;;;5126700;27;20043;-75
2023/05/04 12:17:22;;;;;;;5.70;2.30;;;13.60;99.90;;;;;;5112762;27;20038;-75
2023/05/04 12:19:55;;;;;;;4.28;1.60;;;13.70;99.90;;;;;;5077546;28;20047;-75
2023/05/04 12:22:32;;;;;;;5.45;1.92;;;13.70;99.90;;;;;;5086879;28;20063;-75
2023/05/04 12:24:59;;;;;;;4.30;1.50;;;13.80;99.90;;;;;;5075096;28;20504;-74
2023/05/04 12:27:25;;;;;;;3.33;1.60;;;13.90;99.90;;;;;;5077894;28;20044;-74
2023/05/04 12:29:51;;;;;;;2.72;1.35;;;13.90;99.90;;;;;;5126367;27;20044;-75
2023/05/04 12:32:17;;;;;;;2.63;1.70;;;13.90;99.90;;;;;;5076162;28;20028;-75
2023/05/04 12:34:43;;;;;;;3.03;1.92;;;13.90;99.90;;;;;;5094469;28;20054;-75
2023/05/04 12:37:10;;;;;;;9.82;2.22;;;14.00;99.90;;;;;;5093326;27;20040;-75
2023/05/04 12:39:36;;;;;;;3.13;1.45;;;14.10;99.90;;;;;;5097517;28;20028;-75
2023/05/04 12:42:03;;;;;;;3.42;1.58;;;14.10;99.90;;;;;;5099204;28;20103;-75
2023/05/04 12:44:29;;;;;;;3.47;1.70;;;14.20;99.90;;;;;;5097699;28;20066;-75
2023/05/04 12:46:55;;;;;;;4.65;1.90;;;14.30;99.90;;;;;;5100324;28;20111;-75
2023/05/04 12:49:22;;;;;;;4.32;1.70;;;14.40;99.90;;;;;;5128576;27;20107;-75
2023/05/04 12:51:49;;;;;;;7.60;2.20;;;14.50;99.90;;;;;;5131996;27;20036;-75
2023/05/04 12:54:15;;;;;;;6.13;1.70;;;14.60;99.90;;;;;;5126541;27;20067;-75
2023/05/04 12:56:41;;;;;;;7.60;2.38;;;14.60;99.90;;;;;;5072093;28;20060;-75